Richmond, Michigan
Current Conditions -  °F | °C
As of 7:18 PM on Sunday 25 Jan 2015 (Local Time) from KPHN Reporting Station
Clear Clear  
Wind Chill:   Ceiling: Unl
Heat Index: 19°   Visibility: 10mi
Dew Point: 10°   Wind: 8mph
Humidity: 68%   Direction: 30°NNE
Pressure: 29.99"   Gusts: NA
Location:  42.81°N, 82.76°W
Report Text: KPHN 260018Z AUTO 03007KT 10SM CLR M07/M12 A2999 RMK AO2
Loading
Personal Weather Stations






























Interactive Weather Map New forecast layout! Learn more

10-Day Weather Forecast

Advertisements
Track Severe Weather on mobile